Fairport, Missouri
Current Conditions -  °F | °C
As of 9:53 PM on Saturday 25 Oct 2014 (Local Time) from KSTJ Reporting Station
Clear Clear  
Wind Chill: 15°   Ceiling: Unl
Heat Index: 15°   Visibility: 10mi
Dew Point:   Wind: 5mph
Humidity: 64%   Direction: 90°E
Pressure: 30"   Gusts: NA
Location:  39.99°N, 94.35°W
Report Text: KSTJ 260253Z AUTO 09004KT 10SM CLR 15/08 A3000 RMK AO2 SLP159 T01500083 58000
Loading
Personal Weather Stations






























Interactive Weather Map
Tropical Storm Tracking
New forecast layout! Learn more

10-Day Weather Forecast

Advertisements
Track Severe Weather on mobile